createdAt,value
2023-10-03T00:00:35.800Z,998.7
2023-10-03T00:01:37.037Z,998.7
2023-10-03T00:02:38.308Z,998.7
2023-10-03T00:03:40.093Z,998.7
2023-10-03T00:04:41.863Z,998.6
2023-10-03T00:05:43.118Z,998.6
2023-10-03T00:06:44.339Z,998.6
2023-10-03T00:07:45.557Z,998.6
2023-10-03T00:08:46.821Z,998.6
2023-10-03T00:09:48.040Z,998.6
2023-10-03T00:10:49.195Z,998.6
2023-10-03T00:11:50.415Z,998.6
2023-10-03T00:12:51.605Z,998.5
2023-10-03T00:13:52.766Z,998.5
2023-10-03T00:14:54.061Z,998.5
2023-10-03T00:15:55.562Z,998.5
2023-10-03T00:16:56.745Z,998.5
2023-10-03T00:17:58.132Z,998.5
2023-10-03T00:18:59.608Z,998.5
2023-10-03T00:20:01.042Z,998.5
2023-10-03T00:21:02.213Z,998.5
2023-10-03T00:22:03.371Z,998.5
2023-10-03T00:23:04.544Z,998.4
2023-10-03T00:24:05.747Z,998.4
2023-10-03T00:25:06.894Z,998.4
2023-10-03T00:26:08.051Z,998.4
2023-10-03T00:27:09.217Z,998.3
2023-10-03T00:28:10.393Z,998.3
2023-10-03T00:29:11.599Z,998.3
2023-10-03T00:30:12.742Z,998.3
2023-10-03T00:31:13.950Z,998.3
2023-10-03T00:32:15.129Z,998.3
2023-10-03T00:33:16.489Z,998.3
2023-10-03T00:34:17.753Z,998.3
2023-10-03T00:35:19.007Z,998.3
2023-10-03T00:36:20.189Z,998.3
2023-10-03T00:37:21.348Z,998.3
2023-10-03T00:38:22.590Z,998.3
2023-10-03T00:39:23.806Z,998.3
2023-10-03T00:40:24.974Z,998.2
2023-10-03T00:41:26.167Z,998.2
2023-10-03T00:42:27.366Z,998.2
2023-10-03T00:43:28.596Z,998.2
2023-10-03T00:44:29.772Z,998.1
2023-10-03T00:45:31.100Z,998.1
2023-10-03T00:46:32.412Z,998.1
2023-10-03T00:47:33.680Z,998.1
2023-10-03T00:48:35.024Z,998
2023-10-03T00:49:36.222Z,998
2023-10-03T00:50:37.582Z,998
2023-10-03T00:51:38.938Z,997.9
2023-10-03T00:52:40.085Z,997.9
2023-10-03T00:53:41.320Z,997.8
2023-10-03T00:54:42.556Z,997.8
2023-10-03T00:55:43.708Z,997.7
2023-10-03T00:56:45.277Z,997.8
2023-10-03T00:57:46.441Z,997.7
2023-10-03T00:58:47.593Z,997.7
2023-10-03T00:59:48.855Z,997.6
2023-10-03T01:00:50.057Z,997.7
2023-10-03T01:01:51.293Z,997.6
2023-10-03T01:02:52.672Z,997.6
2023-10-03T01:03:54.123Z,997.6
2023-10-03T01:04:55.460Z,997.6
2023-10-03T01:05:56.626Z,997.6
2023-10-03T01:06:57.797Z,997.6
2023-10-03T01:07:58.957Z,997.6
2023-10-03T01:09:00.167Z,997.5
2023-10-03T01:10:01.533Z,997.5
2023-10-03T01:11:02.727Z,997.5
2023-10-03T01:12:03.910Z,997.5
2023-10-03T01:13:05.081Z,997.4
2023-10-03T01:14:06.234Z,997.4
2023-10-03T01:15:07.409Z,997.4
2023-10-03T01:16:08.658Z,997.3
2023-10-03T01:17:09.920Z,997.3
2023-10-03T01:18:11.328Z,997.3
2023-10-03T01:19:12.582Z,997.4
2023-10-03T01:20:13.819Z,997.4
2023-10-03T01:21:14.973Z,997.3
2023-10-03T01:22:16.131Z,997.3
2023-10-03T01:23:17.319Z,997.3
2023-10-03T01:24:18.508Z,997.3
2023-10-03T01:25:19.855Z,997.3
2023-10-03T01:26:21.010Z,997.3
2023-10-03T01:27:22.165Z,997.3
2023-10-03T01:28:23.328Z,997.3
2023-10-03T01:29:24.657Z,997.2
2023-10-03T01:30:25.960Z,997.2
2023-10-03T01:31:27.158Z,997.2
2023-10-03T01:32:28.571Z,997.2
2023-10-03T01:33:30.323Z,997.2
2023-10-03T01:34:31.474Z,997.1
2023-10-03T01:35:32.815Z,997.1
2023-10-03T01:36:34.016Z,997.1
2023-10-03T01:37:35.199Z,997.1
2023-10-03T01:38:36.412Z,997.1
2023-10-03T01:39:37.640Z,997.1
2023-10-03T01:40:42.869Z,997
2023-10-03T01:41:44.451Z,997
2023-10-03T01:42:45.650Z,996.9
2023-10-03T01:43:46.820Z,997
2023-10-03T01:44:48.041Z,996.9
2023-10-03T01:45:49.189Z,996.9
2023-10-03T01:46:50.352Z,996.9
2023-10-03T01:47:51.765Z,996.9
2023-10-03T01:48:53.031Z,996.8
2023-10-03T01:49:54.189Z,996.9
2023-10-03T01:50:55.409Z,996.8
2023-10-03T01:51:56.610Z,996.8
2023-10-03T01:52:57.767Z,996.8
2023-10-03T01:53:58.984Z,996.8
2023-10-03T01:55:00.244Z,996.8
2023-10-03T01:56:01.429Z,996.8
2023-10-03T01:57:02.578Z,996.7
2023-10-03T01:58:03.746Z,996.7
2023-10-03T01:59:05.032Z,996.7
2023-10-03T02:00:06.196Z,996.7
2023-10-03T02:01:07.366Z,996.7
2023-10-03T02:02:08.606Z,996.6
2023-10-03T02:03:09.961Z,996.6
2023-10-03T02:04:11.374Z,996.5
2023-10-03T02:05:12.566Z,996.5
2023-10-03T02:06:13.732Z,996.5
2023-10-03T02:07:14.896Z,996.5
2023-10-03T02:08:16.154Z,996.5
2023-10-03T02:09:17.671Z,996.5
2023-10-03T02:10:18.922Z,996.4
2023-10-03T02:11:20.174Z,996.5
2023-10-03T02:12:21.344Z,996.4
2023-10-03T02:13:22.557Z,996.5
2023-10-03T02:14:23.915Z,996.5
2023-10-03T02:15:25.375Z,996.5
2023-10-03T02:16:26.571Z,996.4
2023-10-03T02:17:27.902Z,996.4
2023-10-03T02:18:29.303Z,996.4
2023-10-03T02:19:30.556Z,996.4
2023-10-03T02:20:31.755Z,996.4
2023-10-03T02:21:33.065Z,996.3
2023-10-03T02:22:34.230Z,996.3
2023-10-03T02:23:35.424Z,996.3
2023-10-03T02:24:36.581Z,996.3
2023-10-03T02:25:37.744Z,996.2
2023-10-03T02:26:39.061Z,996.2
2023-10-03T02:27:40.396Z,996.2
2023-10-03T02:28:41.538Z,996.2
2023-10-03T02:29:43.037Z,996.2
2023-10-03T02:30:44.229Z,996.2
2023-10-03T02:31:45.457Z,996.1
2023-10-03T02:32:46.920Z,996.1
2023-10-03T02:33:48.294Z,996.1
2023-10-03T02:34:49.458Z,996.1
2023-10-03T02:35:51.732Z,996.1
2023-10-03T02:36:53.207Z,996
2023-10-03T02:37:54.384Z,996
2023-10-03T02:38:55.672Z,996
2023-10-03T02:39:56.832Z,996
2023-10-03T02:40:58.004Z,995.9
2023-10-03T02:41:59.316Z,995.9
2023-10-03T02:43:00.659Z,995.9
2023-10-03T02:44:01.818Z,995.9
2023-10-03T02:45:02.990Z,995.9
2023-10-03T02:46:04.265Z,995.9
2023-10-03T02:47:05.429Z,995.9
2023-10-03T02:48:06.761Z,995.8
2023-10-03T02:49:07.999Z,995.8
2023-10-03T02:50:09.169Z,995.8
2023-10-03T02:51:10.348Z,995.8
2023-10-03T02:52:11.513Z,995.8
2023-10-03T02:53:12.689Z,995.8
2023-10-03T02:54:13.839Z,995.8
2023-10-03T02:55:15.022Z,995.8
2023-10-03T02:56:16.395Z,995.7
2023-10-03T02:57:17.759Z,995.7
2023-10-03T02:58:18.898Z,995.7
2023-10-03T02:59:20.070Z,995.7
2023-10-03T03:00:21.244Z,995.6
2023-10-03T03:01:22.687Z,995.7
2023-10-03T03:02:24.067Z,995.7
2023-10-03T03:03:25.598Z,995.7
2023-10-03T03:04:27.099Z,995.7
2023-10-03T03:05:28.551Z,995.7
2023-10-03T03:06:29.717Z,995.6
2023-10-03T03:07:30.880Z,995.6
2023-10-03T03:08:32.075Z,995.6
2023-10-03T03:09:33.507Z,995.6
2023-10-03T03:10:34.675Z,995.6
2023-10-03T03:11:35.916Z,995.6
2023-10-03T03:12:37.133Z,995.6
2023-10-03T03:13:38.412Z,995.6
2023-10-03T03:14:39.650Z,995.5
2023-10-03T03:15:40.926Z,995.4
2023-10-03T03:16:42.092Z,995.4
2023-10-03T03:17:43.392Z,995.4
2023-10-03T03:18:45.870Z,995.4
2023-10-03T03:19:47.040Z,995.4
2023-10-03T03:20:48.254Z,995.4
2023-10-03T03:21:49.443Z,995.4
2023-10-03T03:22:50.617Z,995.3
2023-10-03T03:23:51.824Z,995.3
2023-10-03T03:24:53.211Z,995.3
2023-10-03T03:25:54.383Z,995.3
2023-10-03T03:26:55.585Z,995.3
2023-10-03T03:27:56.847Z,995.3
2023-10-03T03:28:58.066Z,995.2
2023-10-03T03:29:59.355Z,995.2
2023-10-03T03:31:00.605Z,995.1
2023-10-03T03:32:01.740Z,995.1
2023-10-03T03:33:03.023Z,995.1
2023-10-03T03:34:04.483Z,995.1
2023-10-03T03:35:05.653Z,995.1
2023-10-03T03:36:06.817Z,995.1
2023-10-03T03:37:08.020Z,995.1
2023-10-03T03:38:09.179Z,995.1
2023-10-03T03:39:10.354Z,995.1
2023-10-03T03:40:11.510Z,995.1
2023-10-03T03:41:12.678Z,995.1
2023-10-03T03:42:13.841Z,995.1
2023-10-03T03:43:15.064Z,995
2023-10-03T03:44:16.202Z,995
2023-10-03T03:45:17.362Z,995
2023-10-03T03:46:18.643Z,995
2023-10-03T03:47:19.933Z,995
2023-10-03T03:48:21.320Z,995
2023-10-03T03:49:22.590Z,994.9
2023-10-03T03:50:23.882Z,994.9
2023-10-03T03:51:25.106Z,994.9
2023-10-03T03:52:26.268Z,994.9
2023-10-03T03:53:27.454Z,994.9
2023-10-03T03:54:28.622Z,994.9
2023-10-03T03:55:30.844Z,994.9
2023-10-03T03:56:32.049Z,994.9
2023-10-03T03:57:33.215Z,994.8
2023-10-03T03:58:34.454Z,994.8
2023-10-03T03:59:35.666Z,994.8
2023-10-03T04:00:36.809Z,994.7
2023-10-03T04:01:38.028Z,994.7
2023-10-03T04:02:39.641Z,994.7
2023-10-03T04:03:41.305Z,994.7
2023-10-03T04:04:42.665Z,994.7
2023-10-03T04:05:43.900Z,994.7
2023-10-03T04:06:45.199Z,994.6
2023-10-03T04:07:46.373Z,994.6
2023-10-03T04:09:09.657Z,994.6
2023-10-03T04:10:11.039Z,994.5
2023-10-03T04:11:12.283Z,994.5
2023-10-03T04:12:13.478Z,994.6
2023-10-03T04:13:14.639Z,994.5
2023-10-03T04:14:15.835Z,994.4
2023-10-03T04:15:16.975Z,994.4
2023-10-03T04:16:18.186Z,994.4
2023-10-03T04:17:19.482Z,994.4
2023-10-03T04:18:20.858Z,994.5
2023-10-03T04:19:22.192Z,994.4
2023-10-03T04:20:23.371Z,994.4
2023-10-03T04:21:24.536Z,994.4
2023-10-03T04:22:25.695Z,994.3
2023-10-03T04:23:26.881Z,994.3
2023-10-03T04:24:28.020Z,994.2
2023-10-03T04:25:29.187Z,994.2
2023-10-03T04:26:30.366Z,994.2
2023-10-03T04:27:31.572Z,994.2
2023-10-03T04:28:32.724Z,994.2
2023-10-03T04:29:34.106Z,994.1
2023-10-03T04:30:35.293Z,994.2
2023-10-03T04:31:36.537Z,994.1
2023-10-03T04:32:37.896Z,994.1
2023-10-03T04:33:39.439Z,994.1
2023-10-03T04:34:40.750Z,994.1
2023-10-03T04:35:42.116Z,994.1
2023-10-03T04:36:43.375Z,994.1
2023-10-03T04:37:44.535Z,994.1
2023-10-03T04:38:45.759Z,994.1
2023-10-03T04:39:47.106Z,994.1
2023-10-03T04:40:48.275Z,994
2023-10-03T04:41:49.585Z,994
2023-10-03T04:42:51.281Z,994
2023-10-03T04:43:52.484Z,993.9
2023-10-03T04:44:53.870Z,993.9
2023-10-03T04:45:55.206Z,993.9
2023-10-03T04:46:56.486Z,993.9
2023-10-03T04:47:57.703Z,993.9
2023-10-03T04:48:59.110Z,993.8
2023-10-03T04:50:00.277Z,993.8
2023-10-03T04:51:01.601Z,993.9
2023-10-03T04:52:02.813Z,993.9
2023-10-03T04:53:03.973Z,993.8
2023-10-03T04:54:05.235Z,993.8
2023-10-03T04:55:06.422Z,993.8
2023-10-03T04:56:07.585Z,993.9
2023-10-03T04:57:08.838Z,993.9
2023-10-03T04:58:10.068Z,993.9
2023-10-03T04:59:11.239Z,993.9
2023-10-03T05:00:12.435Z,993.9
2023-10-03T05:01:13.679Z,993.8
2023-10-03T05:02:14.818Z,993.8
2023-10-03T05:03:16.175Z,993.8
2023-10-03T05:04:17.958Z,993.8
2023-10-03T05:05:19.224Z,993.8
2023-10-03T05:06:20.397Z,993.8
2023-10-03T05:07:21.557Z,993.7
2023-10-03T05:08:22.747Z,993.7
2023-10-03T05:09:23.902Z,993.7
2023-10-03T05:10:25.082Z,993.7
2023-10-03T05:11:26.304Z,993.7
2023-10-03T05:12:27.526Z,993.7
2023-10-03T05:13:28.683Z,993.6
2023-10-03T05:14:29.893Z,993.6
2023-10-03T05:15:31.100Z,993.6
2023-10-03T05:16:32.260Z,993.6
2023-10-03T05:17:33.612Z,993.5
2023-10-03T05:18:34.945Z,993.5
2023-10-03T05:19:36.327Z,993.4
2023-10-03T05:20:37.523Z,993.3
2023-10-03T05:21:38.798Z,993.3
2023-10-03T05:22:39.978Z,993.3
2023-10-03T05:23:41.206Z,993.4
2023-10-03T05:24:42.405Z,993.5
2023-10-03T05:25:43.627Z,993.5
2023-10-03T05:26:45.595Z,993.5
2023-10-03T05:27:46.735Z,993.4
2023-10-03T05:28:47.900Z,993.4
2023-10-03T05:29:49.155Z,993.2
2023-10-03T05:30:50.401Z,993.2
2023-10-03T05:31:51.608Z,993.1
2023-10-03T05:32:53.026Z,993.2
2023-10-03T05:33:54.344Z,993.2
2023-10-03T05:34:55.499Z,993.4
2023-10-03T05:35:56.768Z,993.3
2023-10-03T05:36:57.958Z,993.3
2023-10-03T05:37:59.177Z,993.4
2023-10-03T05:39:00.483Z,993.4
2023-10-03T05:40:02.153Z,993.4
2023-10-03T05:41:03.293Z,993.4
2023-10-03T05:42:04.543Z,993.4
2023-10-03T05:43:08.007Z,993.4
2023-10-03T05:44:09.718Z,993.4
2023-10-03T05:45:10.885Z,993.4
2023-10-03T05:46:12.122Z,993.4
2023-10-03T05:47:13.357Z,993.4
2023-10-03T05:48:14.889Z,993.5
2023-10-03T05:49:16.180Z,993.4
2023-10-03T05:50:17.354Z,993.4
2023-10-03T05:51:18.519Z,993.4
2023-10-03T05:52:19.675Z,993.4
2023-10-03T05:53:20.838Z,993.4
2023-10-03T05:54:22.007Z,993.4
2023-10-03T05:55:23.171Z,993.4
2023-10-03T05:56:24.406Z,993.4
2023-10-03T05:57:25.601Z,993.4
2023-10-03T05:58:26.775Z,993.4
2023-10-03T05:59:28.171Z,993.4
2023-10-03T06:00:29.491Z,993.4
2023-10-03T06:01:30.706Z,993.4
2023-10-03T06:02:31.994Z,993.4
2023-10-03T06:03:33.664Z,993.4
2023-10-03T06:04:35.139Z,993.3
2023-10-03T06:05:36.342Z,993.3
2023-10-03T06:06:37.499Z,993.4
2023-10-03T06:07:38.665Z,993.3
2023-10-03T06:08:39.869Z,993.3
2023-10-03T06:09:41.018Z,993.3
2023-10-03T06:10:42.198Z,993.4
2023-10-03T06:11:43.431Z,993.3
2023-10-03T06:12:44.665Z,993.3
2023-10-03T06:13:45.946Z,993.4
2023-10-03T06:14:47.224Z,993.4
2023-10-03T06:15:48.437Z,993.4
2023-10-03T06:16:49.692Z,993.4
2023-10-03T06:17:51.031Z,993.4
2023-10-03T06:18:52.265Z,993.4
2023-10-03T06:19:53.446Z,993.3
2023-10-03T06:20:54.744Z,993.4
2023-10-03T06:21:55.984Z,993.4
2023-10-03T06:22:57.145Z,993.3
2023-10-03T06:23:58.400Z,993.4
2023-10-03T06:24:59.594Z,993.4
2023-10-03T06:26:00.786Z,993.4
2023-10-03T06:27:01.972Z,993.4
2023-10-03T06:28:03.161Z,993.3
2023-10-03T06:29:04.724Z,993.4
2023-10-03T06:30:05.929Z,993.4
2023-10-03T06:31:07.154Z,993.4
2023-10-03T06:32:08.455Z,993.4
2023-10-03T06:33:09.869Z,993.3
2023-10-03T06:34:11.078Z,993.3
2023-10-03T06:35:12.249Z,993.4
2023-10-03T06:36:13.410Z,993.4
2023-10-03T06:37:14.573Z,993.4
2023-10-03T06:38:15.812Z,993.4
2023-10-03T06:39:16.961Z,993.4
2023-10-03T06:40:18.128Z,993.4
2023-10-03T06:41:19.291Z,993.4
2023-10-03T06:42:20.460Z,993.4
2023-10-03T06:43:21.628Z,993.4
2023-10-03T06:44:22.793Z,993.4
2023-10-03T06:45:23.953Z,993.3
2023-10-03T06:46:25.169Z,993.3
2023-10-03T06:47:26.560Z,993.3
2023-10-03T06:48:27.961Z,993.3
2023-10-03T06:49:29.328Z,993.3
2023-10-03T06:50:30.547Z,993.3
2023-10-03T06:51:31.746Z,993.3
2023-10-03T06:52:32.917Z,993.2
2023-10-03T06:53:34.129Z,993.2
2023-10-03T06:54:35.304Z,993.2
2023-10-03T06:55:36.461Z,993.2
2023-10-03T06:56:37.680Z,993.2
2023-10-03T06:57:38.927Z,993.2
2023-10-03T06:58:40.095Z,993.2
2023-10-03T06:59:41.277Z,993.2
2023-10-03T07:00:42.517Z,993.2
2023-10-03T07:01:43.683Z,993.3
2023-10-03T07:02:45.057Z,993.3
2023-10-03T07:03:46.795Z,993.3
2023-10-03T07:04:48.480Z,993.3
2023-10-03T07:05:49.725Z,993.3
2023-10-03T07:06:50.895Z,993.2
2023-10-03T07:07:52.063Z,993.2
2023-10-03T07:08:53.321Z,993.1
2023-10-03T07:09:54.509Z,993
2023-10-03T07:10:55.679Z,993
2023-10-03T07:11:56.900Z,993
2023-10-03T07:12:58.134Z,993
2023-10-03T07:14:01.895Z,993
2023-10-03T07:15:03.189Z,993
2023-10-03T07:16:04.387Z,993.1
2023-10-03T07:17:05.659Z,993.2
2023-10-03T07:18:07.024Z,993.2
2023-10-03T07:19:08.283Z,993.2
2023-10-03T07:20:09.447Z,993.2
2023-10-03T07:21:10.623Z,993.2
2023-10-03T07:22:11.783Z,993.2
2023-10-03T07:23:12.951Z,993.2
2023-10-03T07:24:14.204Z,993.2
2023-10-03T07:25:15.507Z,993.3
2023-10-03T07:26:16.696Z,993.3
2023-10-03T07:27:18.062Z,993.3
2023-10-03T07:28:19.592Z,993.3
2023-10-03T07:29:20.753Z,993.3
2023-10-03T07:30:24.858Z,993.3
2023-10-03T07:31:26.200Z,993.2
2023-10-03T07:32:31.285Z,993.3
2023-10-03T07:33:33.144Z,993.3
2023-10-03T07:34:34.742Z,993.3
2023-10-03T07:35:36.011Z,993.3
2023-10-03T07:36:37.179Z,993.2
2023-10-03T07:37:38.343Z,993.2
2023-10-03T07:38:39.517Z,993.1
2023-10-03T07:39:40.708Z,993.1
2023-10-03T07:40:42.011Z,993.1
2023-10-03T07:41:43.207Z,993.2
2023-10-03T07:42:44.354Z,993.2
2023-10-03T07:43:45.505Z,993.1
2023-10-03T07:44:46.765Z,993.1
2023-10-03T07:45:47.929Z,993.1
2023-10-03T07:46:49.183Z,993.1
2023-10-03T07:47:50.797Z,993.1
2023-10-03T07:48:52.357Z,993.1
2023-10-03T07:49:53.635Z,993.1
2023-10-03T07:50:54.915Z,993.1
2023-10-03T07:51:56.113Z,993.2
2023-10-03T07:52:57.257Z,993.1
2023-10-03T07:53:58.820Z,993.2
2023-10-03T07:55:00.209Z,993.1
2023-10-03T07:56:01.453Z,993.1
2023-10-03T07:57:02.679Z,993.1
2023-10-03T07:58:04.738Z,993
2023-10-03T07:59:07.280Z,993.1
2023-10-03T08:00:08.861Z,993.1
2023-10-03T08:01:10.609Z,993.1
2023-10-03T08:02:12.220Z,993.1
2023-10-03T08:03:14.220Z,993.2
2023-10-03T08:04:17.021Z,993.2
2023-10-03T08:05:18.823Z,993.2
2023-10-03T08:06:20.061Z,993.2
2023-10-03T08:07:21.245Z,993.3
2023-10-03T08:08:22.409Z,993.3
2023-10-03T08:09:23.553Z,993.2
2023-10-03T08:10:24.727Z,993.2
2023-10-03T08:11:25.901Z,993.2
2023-10-03T08:12:27.097Z,993.2
2023-10-03T08:13:28.259Z,993.3
2023-10-03T08:14:29.430Z,993.2
2023-10-03T08:15:30.625Z,993.3
2023-10-03T08:16:31.809Z,993.3
2023-10-03T08:17:33.337Z,993.3
2023-10-03T08:18:34.650Z,993.3
2023-10-03T08:19:35.935Z,993.3
2023-10-03T08:20:37.096Z,993.4
2023-10-03T08:21:38.573Z,993.4
2023-10-03T08:22:39.743Z,993.4
2023-10-03T08:23:41.004Z,993.4
2023-10-03T08:24:42.197Z,993.4
2023-10-03T08:25:45.713Z,993.4
2023-10-03T08:26:46.925Z,993.2
2023-10-03T08:27:48.150Z,993.3
2023-10-03T08:28:49.323Z,993.2
2023-10-03T08:29:50.594Z,993.3
2023-10-03T08:30:51.922Z,993.3
2023-10-03T08:31:53.102Z,993.3
2023-10-03T08:32:54.384Z,993.3
2023-10-03T08:33:55.654Z,993.4
2023-10-03T08:34:56.858Z,993.4
2023-10-03T08:35:58.141Z,993.4
2023-10-03T08:36:59.343Z,993.4
2023-10-03T08:38:00.537Z,993.4
2023-10-03T08:39:02.247Z,993.4
2023-10-03T08:40:04.098Z,993.4
2023-10-03T08:41:05.333Z,993.4
2023-10-03T08:42:06.516Z,993.4
2023-10-03T08:43:07.676Z,993.4
2023-10-03T08:44:08.841Z,993.4
2023-10-03T08:45:10.119Z,993.4
2023-10-03T08:46:11.399Z,993.4
2023-10-03T08:47:12.577Z,993.5
2023-10-03T08:48:13.855Z,993.5
2023-10-03T08:49:15.083Z,993.5
2023-10-03T08:50:16.488Z,993.4
2023-10-03T08:51:17.734Z,993.4
2023-10-03T08:52:18.926Z,993.4
2023-10-03T08:53:20.088Z,993.4
2023-10-03T08:54:21.262Z,993.4
2023-10-03T08:55:22.515Z,993.4
2023-10-03T08:56:23.693Z,993.3
2023-10-03T08:57:24.913Z,993.3
2023-10-03T08:58:26.043Z,993.4
2023-10-03T08:59:27.294Z,993.4
2023-10-03T09:00:28.524Z,993.4
2023-10-03T09:01:29.734Z,993.4
2023-10-03T09:02:31.013Z,993.4
2023-10-03T09:03:32.344Z,993.4
2023-10-03T09:04:33.747Z,993.5
2023-10-03T09:05:35.114Z,993.5
2023-10-03T09:06:36.352Z,993.4
2023-10-03T09:07:37.515Z,993.5
2023-10-03T09:08:38.862Z,993.5
2023-10-03T09:09:40.172Z,993.5
2023-10-03T09:10:41.374Z,993.4
2023-10-03T09:11:42.540Z,993.4
2023-10-03T09:12:43.708Z,993.4
2023-10-03T09:13:44.866Z,993.4
2023-10-03T09:14:46.087Z,993.4
2023-10-03T09:15:47.364Z,993.4
2023-10-03T09:16:48.540Z,993.3
2023-10-03T09:17:49.937Z,993.3
2023-10-03T09:18:51.247Z,993.2
2023-10-03T09:19:52.614Z,993.2
2023-10-03T09:20:54.020Z,993.3
2023-10-03T09:21:55.311Z,993.4
2023-10-03T09:22:56.502Z,993.3
2023-10-03T09:23:57.742Z,993.2
2023-10-03T09:24:58.942Z,993.2
2023-10-03T09:26:00.125Z,993.3
2023-10-03T09:27:01.313Z,993.4
2023-10-03T09:28:02.526Z,993.4
2023-10-03T09:29:04.082Z,993.5
2023-10-03T09:30:05.664Z,993.6
2023-10-03T09:31:07.214Z,993.6
2023-10-03T09:32:08.445Z,993.6
2023-10-03T09:33:10.255Z,993.6
2023-10-03T09:34:11.628Z,993.5
2023-10-03T09:35:12.793Z,993.5
2023-10-03T09:36:14.006Z,993.6
2023-10-03T09:37:15.208Z,993.6
2023-10-03T09:38:16.365Z,993.5
2023-10-03T09:39:17.571Z,993.6
2023-10-03T09:40:18.736Z,993.7
2023-10-03T09:41:19.946Z,993.7
2023-10-03T09:42:21.107Z,993.7
2023-10-03T09:43:22.321Z,993.7
2023-10-03T09:44:23.462Z,993.6
2023-10-03T09:45:24.655Z,993.7
2023-10-03T09:46:26.011Z,993.7
2023-10-03T09:47:27.204Z,993.6
2023-10-03T09:48:28.774Z,993.6
2023-10-03T09:49:30.070Z,993.7
2023-10-03T09:50:31.294Z,993.5
2023-10-03T09:51:32.775Z,993.4
2023-10-03T09:52:33.933Z,993.4
2023-10-03T09:53:35.368Z,993.4
2023-10-03T09:54:36.516Z,993.4
2023-10-03T09:55:40.191Z,993.5
2023-10-03T09:56:41.380Z,993.5
2023-10-03T09:57:42.828Z,993.6
2023-10-03T09:58:44.266Z,993.6
2023-10-03T09:59:46.179Z,993.7
2023-10-03T10:00:47.356Z,993.6
2023-10-03T10:01:48.590Z,993.6
2023-10-03T10:02:49.977Z,993.6
2023-10-03T10:03:51.600Z,993.6
2023-10-03T10:04:53.095Z,993.5
2023-10-03T10:05:54.350Z,993.5
2023-10-03T10:06:55.553Z,993.5
2023-10-03T10:07:56.692Z,993.5
2023-10-03T10:08:57.872Z,993.5
2023-10-03T10:09:59.113Z,993.5
2023-10-03T10:11:00.276Z,993.6
2023-10-03T10:12:01.538Z,993.7
2023-10-03T10:13:02.782Z,993.8
2023-10-03T10:14:03.958Z,993.9
2023-10-03T10:15:05.174Z,993.9
2023-10-03T10:16:06.445Z,994
2023-10-03T10:17:07.860Z,994
2023-10-03T10:18:09.245Z,994.1
2023-10-03T10:19:10.607Z,994.1
2023-10-03T10:20:12.481Z,994.1
2023-10-03T10:21:13.760Z,994.2
2023-10-03T10:22:14.969Z,994.2
2023-10-03T10:23:16.097Z,994.3
2023-10-03T10:24:18.247Z,994.3
2023-10-03T10:25:19.395Z,994.2
2023-10-03T10:26:20.566Z,994.1
2023-10-03T10:27:21.723Z,994.1
2023-10-03T10:28:22.891Z,994.2
2023-10-03T10:29:24.052Z,994.1
2023-10-03T10:30:25.220Z,994.1
2023-10-03T10:31:26.770Z,994.1
2023-10-03T10:32:28.056Z,994
2023-10-03T10:33:29.474Z,994.1
2023-10-03T10:34:30.960Z,994
2023-10-03T10:35:32.195Z,994
2023-10-03T10:36:33.340Z,994
2023-10-03T10:37:34.529Z,994.1
2023-10-03T10:38:35.752Z,994.1
2023-10-03T10:39:37.045Z,994.1
2023-10-03T10:40:38.377Z,994.2
2023-10-03T10:41:39.543Z,994.2
2023-10-03T10:42:40.697Z,994.2
2023-10-03T10:43:41.863Z,994.2
2023-10-03T10:44:43.118Z,994.1
2023-10-03T10:45:44.283Z,994.2
2023-10-03T10:46:45.491Z,994.1
2023-10-03T10:47:46.735Z,994.3
2023-10-03T10:48:48.319Z,994.2
2023-10-03T10:49:49.593Z,994.1
2023-10-03T10:50:50.787Z,994.1
2023-10-03T10:51:52.024Z,994.1
2023-10-03T10:52:53.397Z,994.1
2023-10-03T10:53:54.633Z,994
2023-10-03T10:54:55.906Z,994.1
2023-10-03T10:55:57.068Z,994.1
2023-10-03T10:56:58.313Z,994.2
2023-10-03T10:57:59.527Z,994.2
2023-10-03T10:59:05.298Z,994.2
2023-10-03T11:00:07.153Z,994.1
2023-10-03T11:01:08.487Z,994.1
2023-10-03T11:02:09.680Z,994.1
2023-10-03T11:03:11.127Z,994
2023-10-03T11:04:12.742Z,994
2023-10-03T11:05:14.137Z,994.1
2023-10-03T11:06:15.730Z,994
2023-10-03T11:07:16.910Z,994.1
2023-10-03T11:08:18.140Z,994.1
2023-10-03T11:09:19.543Z,994.1
2023-10-03T11:10:35.971Z,994.1
2023-10-03T11:11:37.344Z,994.1
2023-10-03T11:12:38.581Z,994.1
2023-10-03T11:13:39.749Z,994.2
2023-10-03T11:14:40.965Z,994.3
2023-10-03T11:15:42.117Z,994.2
2023-10-03T11:16:43.316Z,994.2
2023-10-03T11:17:44.571Z,994.2
2023-10-03T11:18:45.856Z,994.2
2023-10-03T11:19:47.256Z,994.2
2023-10-03T11:20:48.589Z,994.2
2023-10-03T11:21:49.878Z,994.2
2023-10-03T11:22:51.028Z,994.2
2023-10-03T11:23:52.352Z,994.2
2023-10-03T11:24:53.540Z,994.2
2023-10-03T11:25:54.692Z,994.3
2023-10-03T11:26:55.972Z,994.2
2023-10-03T11:27:57.161Z,994.2
2023-10-03T11:28:58.326Z,994.3
2023-10-03T11:29:59.607Z,994.3
2023-10-03T11:31:00.823Z,994.4
2023-10-03T11:32:01.988Z,994.4
2023-10-03T11:33:03.441Z,994.4
2023-10-03T11:34:04.842Z,994.4
2023-10-03T11:35:06.015Z,994.4
2023-10-03T11:36:07.249Z,994.4
2023-10-03T11:37:08.460Z,994.4
2023-10-03T11:38:09.627Z,994.4
2023-10-03T11:39:10.909Z,994.4
2023-10-03T11:40:12.140Z,994.4
2023-10-03T11:41:13.611Z,994.4
2023-10-03T11:42:14.816Z,994.4
2023-10-03T11:43:18.760Z,994.4
2023-10-03T11:44:20.076Z,994.4
2023-10-03T11:45:24.098Z,994.4
2023-10-03T11:46:25.721Z,994.4
2023-10-03T11:47:27.202Z,994.4
2023-10-03T11:48:28.641Z,994.4
2023-10-03T11:49:29.888Z,994.4
2023-10-03T11:50:31.116Z,994.3
2023-10-03T11:51:32.247Z,994.3
2023-10-03T11:52:33.499Z,994.3
2023-10-03T11:53:34.792Z,994.3
2023-10-03T11:54:36.012Z,994.3
2023-10-03T11:55:37.191Z,994.3
2023-10-03T11:56:42.085Z,994.4
2023-10-03T11:57:44.829Z,994.3
2023-10-03T11:58:45.999Z,994.3
2023-10-03T11:59:47.201Z,994.3
2023-10-03T12:00:48.548Z,994.4
2023-10-03T12:01:50.064Z,994.4
2023-10-03T12:02:51.549Z,994.3
2023-10-03T12:03:52.997Z,994.3
2023-10-03T12:04:54.357Z,994.4
2023-10-03T12:05:55.601Z,994.3
2023-10-03T12:06:56.748Z,994.2
2023-10-03T12:07:58.023Z,994.2
2023-10-03T12:08:59.352Z,994.2
2023-10-03T12:10:00.556Z,994.2
2023-10-03T12:11:01.718Z,994.2
2023-10-03T12:12:02.984Z,994.2
2023-10-03T12:13:04.239Z,994.2
2023-10-03T12:14:05.393Z,994.2
2023-10-03T12:15:07.030Z,994.2
2023-10-03T12:16:08.213Z,994.2
2023-10-03T12:17:09.473Z,994.1
2023-10-03T12:18:10.889Z,994.2
2023-10-03T12:19:12.768Z,994.2
2023-10-03T12:20:13.945Z,994.2
2023-10-03T12:21:15.136Z,994.1
2023-10-03T12:22:16.395Z,994.1
2023-10-03T12:23:17.977Z,994.2
2023-10-03T12:24:19.484Z,994.2
2023-10-03T12:25:20.684Z,994.2
2023-10-03T12:26:27.940Z,994.2
2023-10-03T12:27:29.337Z,994.1
2023-10-03T12:28:30.504Z,994.1
2023-10-03T12:29:31.677Z,994.1
2023-10-03T12:30:32.836Z,994.1
2023-10-03T12:31:34.156Z,994.1
2023-10-03T12:32:35.501Z,994.1
2023-10-03T12:33:37.056Z,994.1
2023-10-03T12:34:38.461Z,994.1
2023-10-03T12:35:39.667Z,994.2
2023-10-03T12:36:40.832Z,994.3
2023-10-03T12:37:42.039Z,994.2
2023-10-03T12:38:43.232Z,994.2
2023-10-03T12:39:44.509Z,994.3
2023-10-03T12:40:45.836Z,994.3
2023-10-03T12:41:47.053Z,994.3
2023-10-03T12:42:48.276Z,994.3
2023-10-03T12:43:49.499Z,994.3
2023-10-03T12:44:50.732Z,994.2
2023-10-03T12:45:51.927Z,994.2
2023-10-03T12:46:53.087Z,994.3
2023-10-03T12:47:54.386Z,994.3
2023-10-03T12:48:56.328Z,994.3
2023-10-03T12:49:57.511Z,994.3
2023-10-03T12:50:58.784Z,994.3
2023-10-03T12:52:00.190Z,994.4
2023-10-03T12:53:01.356Z,994.3
2023-10-03T12:54:02.578Z,994.3
2023-10-03T12:55:03.754Z,994.3
2023-10-03T12:56:04.944Z,994.3
2023-10-03T12:57:06.178Z,994.3
2023-10-03T12:58:07.427Z,994.3
2023-10-03T12:59:08.588Z,994.3
2023-10-03T13:00:09.806Z,994.3
2023-10-03T13:01:11.101Z,994.3
2023-10-03T13:02:12.326Z,994.3
2023-10-03T13:03:16.349Z,994.3
2023-10-03T13:04:18.087Z,994.3
2023-10-03T13:05:19.571Z,994.3
2023-10-03T13:06:20.736Z,994.3
2023-10-03T13:07:21.932Z,994.4
2023-10-03T13:08:23.075Z,994.3
2023-10-03T13:09:24.241Z,994.4
2023-10-03T13:10:25.401Z,994.3
2023-10-03T13:11:26.610Z,994.2
2023-10-03T13:12:27.772Z,994.2
2023-10-03T13:13:28.940Z,994.1